createdAt,value
2018-12-21T00:00:42.401Z,1008.47
2018-12-21T00:01:42.234Z,1008.45
2018-12-21T00:02:44.458Z,1008.44
2018-12-21T00:03:42.207Z,1008.48
2018-12-21T00:04:42.198Z,1008.50
2018-12-21T00:05:42.180Z,1008.44
2018-12-21T00:06:42.193Z,1008.45
2018-12-21T00:07:42.162Z,1008.44
2018-12-21T00:08:42.155Z,1008.36
2018-12-21T00:09:42.149Z,1008.44
2018-12-21T00:10:42.142Z,1008.44
2018-12-21T00:11:42.190Z,1008.43
2018-12-21T00:12:42.105Z,1008.45
2018-12-21T00:13:42.094Z,1008.40
2018-12-21T00:14:42.083Z,1008.36
2018-12-21T00:15:42.072Z,1008.38
2018-12-21T00:16:42.083Z,1008.40
2018-12-21T00:17:42.084Z,1008.41
2018-12-21T00:18:42.038Z,1008.39
2018-12-21T00:19:42.034Z,1008.38
2018-12-21T00:20:42.022Z,1008.39
2018-12-21T00:21:42.025Z,1008.37
2018-12-21T00:22:41.993Z,1008.31
2018-12-21T00:23:41.982Z,1008.29
2018-12-21T00:24:41.972Z,1008.37
2018-12-21T00:25:41.970Z,1008.37
2018-12-21T00:26:41.979Z,1008.27
2018-12-21T00:27:41.935Z,1008.34
2018-12-21T00:28:49.992Z,1008.32
2018-12-21T00:29:41.920Z,1008.29
2018-12-21T00:30:41.919Z,1008.29
2018-12-21T00:31:41.926Z,1008.26
2018-12-21T00:32:41.880Z,1008.28
2018-12-21T00:33:41.869Z,1008.26
2018-12-21T00:34:41.862Z,1008.25
2018-12-21T00:35:41.850Z,1008.23
2018-12-21T00:36:41.860Z,1008.22
2018-12-21T00:37:41.831Z,1008.23
2018-12-21T00:38:41.817Z,1008.17
2018-12-21T00:39:41.837Z,1008.21
2018-12-21T00:40:41.795Z,1008.21
2018-12-21T00:41:41.839Z,1008.18
2018-12-21T00:42:41.775Z,1008.18
2018-12-21T00:43:41.760Z,1008.19
2018-12-21T00:44:41.751Z,1008.23
2018-12-21T00:45:41.743Z,1008.17
2018-12-21T00:46:41.745Z,1008.21
2018-12-21T00:47:41.715Z,1008.22
2018-12-21T00:48:41.703Z,1008.19
2018-12-21T00:49:41.697Z,1008.25
2018-12-21T00:50:41.682Z,1008.21
2018-12-21T00:51:41.704Z,1008.24
2018-12-21T00:52:41.679Z,1008.20
2018-12-21T00:53:41.652Z,1008.22
2018-12-21T00:54:41.643Z,1008.21
2018-12-21T00:55:41.628Z,1008.19
2018-12-21T00:56:41.621Z,1008.25
2018-12-21T00:57:41.631Z,1008.22
2018-12-21T00:58:41.599Z,1008.20
2018-12-21T00:59:41.591Z,1008.20
2018-12-21T01:00:41.570Z,1008.21
2018-12-21T01:01:41.560Z,1008.19
2018-12-21T01:02:41.569Z,1008.24
2018-12-21T01:03:41.540Z,1008.15
2018-12-21T01:04:41.531Z,1008.19
2018-12-21T01:05:41.516Z,1008.25
2018-12-21T01:06:41.510Z,1008.26
2018-12-21T01:07:41.515Z,1008.26
2018-12-21T01:08:41.492Z,1008.26
2018-12-21T01:09:41.484Z,1008.21
2018-12-21T01:10:41.458Z,1008.26
2018-12-21T01:11:41.447Z,1008.27
2018-12-21T01:12:41.457Z,1008.27
2018-12-21T01:13:41.427Z,1008.26
2018-12-21T01:14:41.495Z,1008.31
2018-12-21T01:15:41.407Z,1008.31
2018-12-21T01:16:41.393Z,1008.31
2018-12-21T01:17:41.469Z,1008.31
2018-12-21T01:18:41.393Z,1008.33
2018-12-21T01:19:41.372Z,1008.33
2018-12-21T01:20:41.350Z,1008.31
2018-12-21T01:21:41.337Z,1008.36
2018-12-21T01:22:41.340Z,1008.38
2018-12-21T01:23:41.318Z,1008.29
2018-12-21T01:24:41.303Z,1008.35
2018-12-21T01:25:41.297Z,1008.34
2018-12-21T01:26:41.285Z,1008.29
2018-12-21T01:27:41.285Z,1008.32
2018-12-21T01:28:41.261Z,1008.31
2018-12-21T01:29:41.250Z,1008.36
2018-12-21T01:30:41.247Z,1008.32
2018-12-21T01:31:41.223Z,1008.30
2018-12-21T01:32:41.231Z,1008.28
2018-12-21T01:33:41.210Z,1008.24
2018-12-21T01:34:41.200Z,1008.26
2018-12-21T01:35:41.179Z,1008.28
2018-12-21T01:36:41.178Z,1008.26
2018-12-21T01:37:41.192Z,1008.29
2018-12-21T01:38:42.039Z,1008.27
2018-12-21T01:39:41.137Z,1008.17
2018-12-21T01:40:41.200Z,1008.25
2018-12-21T01:41:41.117Z,1008.20
2018-12-21T01:42:41.100Z,1008.22
2018-12-21T01:43:41.110Z,1008.22
2018-12-21T01:44:41.080Z,1008.20
2018-12-21T01:45:41.082Z,1008.22
2018-12-21T01:46:41.072Z,1008.13
2018-12-21T01:47:41.047Z,1008.16
2018-12-21T01:48:41.062Z,1008.18
2018-12-21T01:49:41.029Z,1008.13
2018-12-21T01:50:41.019Z,1008.11
2018-12-21T01:51:47.094Z,1008.14
2018-12-21T01:52:41.993Z,1008.02
2018-12-21T01:53:41.011Z,1008.10
2018-12-21T01:54:40.973Z,1008.07
2018-12-21T01:55:40.960Z,1008.05
2018-12-21T01:56:40.951Z,1008.05
2018-12-21T01:57:40.941Z,1007.97
2018-12-21T01:58:40.947Z,1008.00
2018-12-21T01:59:40.914Z,1007.98
2018-12-21T02:00:40.901Z,1008.00
2018-12-21T02:01:40.891Z,1007.99
2018-12-21T02:02:40.881Z,1007.99
2018-12-21T02:03:40.887Z,1008.02
2018-12-21T02:04:40.863Z,1008.00
2018-12-21T02:05:40.849Z,1008.07
2018-12-21T02:06:40.841Z,1008.00
2018-12-21T02:07:40.825Z,1008.00
2018-12-21T02:08:40.833Z,1007.97
2018-12-21T02:09:40.817Z,1007.94
2018-12-21T02:10:40.799Z,1007.97
2018-12-21T02:11:40.817Z,1007.97
2018-12-21T02:12:40.777Z,1007.95
2018-12-21T02:13:40.758Z,1007.96
2018-12-21T02:14:40.765Z,1007.93
2018-12-21T02:15:40.743Z,1007.89
2018-12-21T02:16:40.727Z,1007.82
2018-12-21T02:17:40.721Z,1007.89
2018-12-21T02:18:40.729Z,1007.95
2018-12-21T02:19:40.727Z,1007.93
2018-12-21T02:20:40.681Z,1007.91
2018-12-21T02:21:40.673Z,1007.89
2018-12-21T02:22:40.659Z,1007.80
2018-12-21T02:23:40.673Z,1007.82
2018-12-21T02:24:40.656Z,1007.85
2018-12-21T02:25:40.628Z,1007.84
2018-12-21T02:26:40.645Z,1007.83
2018-12-21T02:27:40.607Z,1007.82
2018-12-21T02:28:40.591Z,1007.86
2018-12-21T02:29:40.596Z,1007.89
2018-12-21T02:30:40.570Z,1007.86
2018-12-21T02:31:40.556Z,1007.83
2018-12-21T02:32:40.551Z,1007.82
2018-12-21T02:33:40.541Z,1007.84
2018-12-21T02:34:40.543Z,1007.78
2018-12-21T02:35:40.520Z,1007.84
2018-12-21T02:36:40.506Z,1007.83
2018-12-21T02:37:40.493Z,1007.85
2018-12-21T02:38:40.483Z,1007.81
2018-12-21T02:39:40.492Z,1007.82
2018-12-21T02:40:40.490Z,1007.80
2018-12-21T02:41:40.464Z,1007.80
2018-12-21T02:42:40.446Z,1007.84
2018-12-21T02:43:40.442Z,1007.81
2018-12-21T02:44:40.433Z,1007.86
2018-12-21T02:45:40.406Z,1007.83
2018-12-21T02:46:40.397Z,1007.79
2018-12-21T02:47:40.385Z,1007.78
2018-12-21T02:48:40.374Z,1007.83
2018-12-21T02:49:40.381Z,1007.84
2018-12-21T02:50:40.352Z,1007.80
2018-12-21T02:51:40.341Z,1007.83
2018-12-21T02:52:40.339Z,1007.81
2018-12-21T02:53:40.328Z,1007.85
2018-12-21T02:54:40.317Z,1007.75
2018-12-21T02:55:40.318Z,1007.79
2018-12-21T02:56:40.287Z,1007.83
2018-12-21T02:57:40.277Z,1007.82
2018-12-21T02:58:40.257Z,1007.78
2018-12-21T02:59:40.261Z,1007.77
2018-12-21T03:00:40.235Z,1007.76
2018-12-21T03:01:40.236Z,1007.71
2018-12-21T03:02:40.214Z,1007.77
2018-12-21T03:03:40.204Z,1007.75
2018-12-21T03:04:40.216Z,1007.70
2018-12-21T03:05:40.178Z,1007.66
2018-12-21T03:06:40.182Z,1007.63
2018-12-21T03:07:40.155Z,1007.56
2018-12-21T03:08:40.163Z,1007.61
2018-12-21T03:09:40.138Z,1007.59
2018-12-21T03:10:40.143Z,1007.61
2018-12-21T03:11:40.116Z,1007.59
2018-12-21T03:12:40.121Z,1007.59
2018-12-21T03:13:40.106Z,1007.58
2018-12-21T03:14:40.101Z,1007.56
2018-12-21T03:15:40.157Z,1007.58
2018-12-21T03:16:40.063Z,1007.55
2018-12-21T03:17:48.048Z,1007.49
2018-12-21T03:18:40.038Z,1007.51
2018-12-21T03:19:48.083Z,1007.52
2018-12-21T03:20:40.048Z,1007.52
2018-12-21T03:21:40.007Z,1007.53
2018-12-21T03:22:48.118Z,1007.56
2018-12-21T03:23:39.985Z,1007.51
2018-12-21T03:24:39.973Z,1007.50
2018-12-21T03:25:40.019Z,1007.53
2018-12-21T03:26:39.952Z,1007.53
2018-12-21T03:27:39.941Z,1007.54
2018-12-21T03:28:39.950Z,1007.53
2018-12-21T03:29:39.922Z,1007.56
2018-12-21T03:30:39.960Z,1007.53
2018-12-21T03:31:39.896Z,1007.53
2018-12-21T03:32:39.903Z,1007.49
2018-12-21T03:33:39.871Z,1007.52
2018-12-21T03:34:39.859Z,1007.52
2018-12-21T03:35:39.869Z,1007.51
2018-12-21T03:36:39.854Z,1007.59
2018-12-21T03:37:39.829Z,1007.51
2018-12-21T03:38:39.814Z,1007.50
2018-12-21T03:39:39.805Z,1007.51
2018-12-21T03:40:39.825Z,1007.48
2018-12-21T03:41:39.782Z,1007.50
2018-12-21T03:42:39.768Z,1007.49
2018-12-21T03:43:39.764Z,1007.44
2018-12-21T03:44:39.758Z,1007.45
2018-12-21T03:45:39.760Z,1007.44
2018-12-21T03:46:39.745Z,1007.43
2018-12-21T03:47:39.716Z,1007.48
2018-12-21T03:48:39.707Z,1007.38
2018-12-21T03:49:39.693Z,1007.33
2018-12-21T03:50:39.686Z,1007.39
2018-12-21T03:51:39.694Z,1007.29
2018-12-21T03:52:39.666Z,1007.30
2018-12-21T03:53:39.643Z,1007.35
2018-12-21T03:54:39.635Z,1007.28
2018-12-21T03:55:39.625Z,1007.29
2018-12-21T03:56:39.641Z,1007.25
2018-12-21T03:57:39.605Z,1007.19
2018-12-21T03:58:39.727Z,1007.25
2018-12-21T03:59:39.581Z,1007.26
2018-12-21T04:00:39.573Z,1007.28
2018-12-21T04:01:39.589Z,1007.22
2018-12-21T04:02:39.543Z,1007.22
2018-12-21T04:03:39.541Z,1007.19
2018-12-21T04:04:39.526Z,1007.21
2018-12-21T04:05:39.513Z,1007.21
2018-12-21T04:06:39.539Z,1007.22
2018-12-21T04:07:39.498Z,1007.17
2018-12-21T04:08:39.482Z,1007.15
2018-12-21T04:09:39.470Z,1007.17
2018-12-21T04:10:39.456Z,1007.14
2018-12-21T04:11:39.460Z,1007.18
2018-12-21T04:12:39.441Z,1007.13
2018-12-21T04:13:39.422Z,1007.18
2018-12-21T04:14:39.418Z,1007.18
2018-12-21T04:15:39.422Z,1007.16
2018-12-21T04:16:39.424Z,1007.10
2018-12-21T04:17:39.380Z,1007.13
2018-12-21T04:18:39.374Z,1007.10
2018-12-21T04:19:39.360Z,1007.11
2018-12-21T04:20:39.350Z,1007.08
2018-12-21T04:21:39.378Z,1007.13
2018-12-21T04:22:39.328Z,1007.14
2018-12-21T04:23:39.313Z,1007.15
2018-12-21T04:24:39.308Z,1007.11
2018-12-21T04:25:39.302Z,1007.10
2018-12-21T04:26:39.295Z,1007.09
2018-12-21T04:27:39.299Z,1007.12
2018-12-21T04:28:39.259Z,1007.11
2018-12-21T04:29:39.247Z,1007.12
2018-12-21T04:30:39.241Z,1007.08
2018-12-21T04:31:39.259Z,1007.09
2018-12-21T04:32:39.222Z,1007.05
2018-12-21T04:33:39.203Z,1007.01
2018-12-21T04:34:39.195Z,1007.03
2018-12-21T04:35:39.192Z,1007.09
2018-12-21T04:36:39.175Z,1007.07
2018-12-21T04:37:39.183Z,1007.06
2018-12-21T04:38:39.163Z,1007.07
2018-12-21T04:39:39.277Z,1007.11
2018-12-21T04:40:39.130Z,1007.12
2018-12-21T04:41:39.120Z,1007.08
2018-12-21T04:42:39.165Z,1007.13
2018-12-21T04:43:39.090Z,1007.14
2018-12-21T04:44:39.079Z,1007.09
2018-12-21T04:45:39.075Z,1007.12
2018-12-21T04:46:39.066Z,1007.07
2018-12-21T04:47:39.069Z,1007.06
2018-12-21T04:48:39.037Z,1007.07
2018-12-21T04:49:39.035Z,1007.10
2018-12-21T04:50:39.018Z,1007.07
2018-12-21T04:51:39.005Z,1007.03
2018-12-21T04:52:43.213Z,1007.04
2018-12-21T04:53:38.986Z,1007.02
2018-12-21T04:54:38.973Z,1007.05
2018-12-21T04:55:38.961Z,1006.97
2018-12-21T04:56:38.945Z,1007.02
2018-12-21T04:57:38.954Z,1007.02
2018-12-21T04:58:38.929Z,1007.01
2018-12-21T04:59:38.913Z,1006.99
2018-12-21T05:00:38.903Z,1006.95
2018-12-21T05:01:38.931Z,1006.97
2018-12-21T05:02:38.903Z,1006.93
2018-12-21T05:03:38.879Z,1006.93
2018-12-21T05:04:38.863Z,1006.97
2018-12-21T05:05:39.572Z,1006.94
2018-12-21T05:06:38.837Z,1006.86
2018-12-21T05:07:38.851Z,1006.89
2018-12-21T05:08:38.825Z,1006.97
2018-12-21T05:09:38.904Z,1006.85
2018-12-21T05:10:39.711Z,1006.91
2018-12-21T05:11:38.781Z,1006.91
2018-12-21T05:12:38.797Z,1006.90
2018-12-21T05:13:38.769Z,1006.86
2018-12-21T05:14:38.767Z,1006.88
2018-12-21T05:15:38.741Z,1006.84
2018-12-21T05:16:38.727Z,1006.82
2018-12-21T05:17:38.772Z,1006.82
2018-12-21T05:18:38.709Z,1006.89
2018-12-21T05:19:39.630Z,1006.91
2018-12-21T05:20:38.683Z,1006.89
2018-12-21T05:21:38.680Z,1006.88
2018-12-21T05:22:38.663Z,1006.87
2018-12-21T05:23:38.737Z,1006.91
2018-12-21T05:24:38.637Z,1006.86
2018-12-21T05:25:38.631Z,1006.84
2018-12-21T05:26:38.615Z,1006.83
2018-12-21T05:27:38.603Z,1006.83
2018-12-21T05:28:38.619Z,1006.83
2018-12-21T05:29:39.641Z,1006.75
2018-12-21T05:30:38.585Z,1006.82
2018-12-21T05:31:38.557Z,1006.77
2018-12-21T05:32:38.552Z,1006.79
2018-12-21T05:33:38.599Z,1006.82
2018-12-21T05:34:38.539Z,1006.73
2018-12-21T05:35:38.579Z,1006.82
2018-12-21T05:36:39.592Z,1006.76
2018-12-21T05:37:38.501Z,1006.75
2018-12-21T05:38:38.500Z,1006.72
2018-12-21T05:39:38.475Z,1006.75
2018-12-21T05:40:38.459Z,1006.71
2018-12-21T05:41:38.453Z,1006.75
2018-12-21T05:42:38.449Z,1006.75
2018-12-21T05:43:38.492Z,1006.79
2018-12-21T05:44:38.422Z,1006.67
2018-12-21T05:45:38.413Z,1006.72
2018-12-21T05:46:38.399Z,1006.68
2018-12-21T05:47:38.395Z,1006.67
2018-12-21T05:48:39.155Z,1006.70
2018-12-21T05:49:38.367Z,1006.67
2018-12-21T05:50:38.353Z,1006.66
2018-12-21T05:51:38.339Z,1006.58
2018-12-21T05:52:38.331Z,1006.62
2018-12-21T05:53:38.343Z,1006.61
2018-12-21T05:54:38.314Z,1006.54
2018-12-21T05:55:38.294Z,1006.55
2018-12-21T05:56:38.284Z,1006.50
2018-12-21T05:57:38.277Z,1006.48
2018-12-21T05:58:38.286Z,1006.51
2018-12-21T05:59:38.254Z,1006.49
2018-12-21T06:00:38.241Z,1006.53
2018-12-21T06:01:38.238Z,1006.52
2018-12-21T06:02:38.223Z,1006.44
2018-12-21T06:03:38.231Z,1006.51
2018-12-21T06:04:38.313Z,1006.40
2018-12-21T06:05:38.187Z,1006.33
2018-12-21T06:06:38.180Z,1006.39
2018-12-21T06:07:38.163Z,1006.38
2018-12-21T06:08:38.157Z,1006.30
2018-12-21T06:09:45.433Z,1006.27
2018-12-21T06:10:38.131Z,1006.24
2018-12-21T06:11:38.122Z,1006.25
2018-12-21T06:12:38.121Z,1006.24
2018-12-21T06:13:38.108Z,1006.16
2018-12-21T06:14:38.106Z,1006.24
2018-12-21T06:15:46.223Z,1006.20
2018-12-21T06:16:38.063Z,1006.18
2018-12-21T06:17:38.049Z,1006.15
2018-12-21T06:18:38.042Z,1006.13
2018-12-21T06:19:38.049Z,1006.19
2018-12-21T06:20:38.032Z,1006.06
2018-12-21T06:21:38.009Z,1006.01
2018-12-21T06:22:37.997Z,1006.05
2018-12-21T06:23:37.991Z,1006.02
2018-12-21T06:24:37.998Z,1005.98
2018-12-21T06:25:37.969Z,1006.01
2018-12-21T06:26:38.055Z,1006.00
2018-12-21T06:27:37.944Z,1005.88
2018-12-21T06:28:37.929Z,1005.92
2018-12-21T06:29:37.941Z,1005.91
2018-12-21T06:30:37.918Z,1005.87
2018-12-21T06:31:37.902Z,1005.87
2018-12-21T06:32:39.975Z,1005.86
2018-12-21T06:33:37.876Z,1005.83
2018-12-21T06:34:37.909Z,1005.81
2018-12-21T06:35:37.862Z,1005.81
2018-12-21T06:36:37.847Z,1005.79
2018-12-21T06:37:37.834Z,1005.73
2018-12-21T06:38:37.826Z,1005.73
2018-12-21T06:39:37.828Z,1005.71
2018-12-21T06:40:37.800Z,1005.70
2018-12-21T06:41:37.789Z,1005.69
2018-12-21T06:42:37.778Z,1005.70
2018-12-21T06:43:37.768Z,1005.68
2018-12-21T06:44:37.766Z,1005.64
2018-12-21T06:45:37.759Z,1005.65
2018-12-21T06:46:37.734Z,1005.69
2018-12-21T06:47:37.721Z,1005.66
2018-12-21T06:48:37.712Z,1005.65
2018-12-21T06:49:37.719Z,1005.65
2018-12-21T06:50:37.691Z,1005.62
2018-12-21T06:51:37.677Z,1005.64
2018-12-21T06:52:37.679Z,1005.64
2018-12-21T06:53:37.656Z,1005.63
2018-12-21T06:54:37.675Z,1005.64
2018-12-21T06:55:37.636Z,1005.63
2018-12-21T06:56:37.624Z,1005.65
2018-12-21T06:57:37.607Z,1005.67
2018-12-21T06:58:37.596Z,1005.66
2018-12-21T06:59:37.588Z,1005.65
2018-12-21T07:00:37.596Z,1005.66
2018-12-21T07:01:37.568Z,1005.66
2018-12-21T07:02:37.555Z,1005.65
2018-12-21T07:03:37.549Z,1005.62
2018-12-21T07:04:37.534Z,1005.61
2018-12-21T07:05:37.538Z,1005.60
2018-12-21T07:06:37.512Z,1005.58
2018-12-21T07:07:37.500Z,1005.54
2018-12-21T07:08:37.486Z,1005.54
2018-12-21T07:09:37.475Z,1005.51
2018-12-21T07:10:37.481Z,1005.54
2018-12-21T07:11:37.454Z,1005.50
2018-12-21T07:12:37.450Z,1005.53
2018-12-21T07:13:37.432Z,1005.46
2018-12-21T07:14:37.423Z,1005.42
2018-12-21T07:15:37.434Z,1005.37
2018-12-21T07:16:37.396Z,1005.36
2018-12-21T07:17:37.386Z,1005.40
2018-12-21T07:18:37.378Z,1005.38
2018-12-21T07:19:37.371Z,1005.39
2018-12-21T07:20:37.378Z,1005.31
2018-12-21T07:21:37.356Z,1005.35
2018-12-21T07:22:37.332Z,1005.36
2018-12-21T07:23:37.327Z,1005.33
2018-12-21T07:24:37.320Z,1005.36
2018-12-21T07:25:37.320Z,1005.31
2018-12-21T07:26:37.289Z,1005.37
2018-12-21T07:27:37.278Z,1005.39
2018-12-21T07:28:37.264Z,1005.31
2018-12-21T07:29:37.255Z,1005.35
2018-12-21T07:30:37.276Z,1005.34
2018-12-21T07:31:37.240Z,1005.31
2018-12-21T07:32:37.226Z,1005.31
2018-12-21T07:33:37.221Z,1005.35
2018-12-21T07:34:37.202Z,1005.35
2018-12-21T07:35:37.196Z,1005.29
2018-12-21T07:36:37.188Z,1005.28
2018-12-21T07:37:37.171Z,1005.34
2018-12-21T07:38:37.154Z,1005.36
2018-12-21T07:39:37.148Z,1005.33
2018-12-21T07:40:37.132Z,1005.30
2018-12-21T07:41:37.138Z,1005.26
2018-12-21T07:42:37.108Z,1005.20
2018-12-21T07:43:37.120Z,1005.18
2018-12-21T07:44:37.094Z,1005.19
2018-12-21T07:45:37.081Z,1005.17
2018-12-21T07:46:37.082Z,1005.21
2018-12-21T07:47:37.054Z,1005.19
2018-12-21T07:48:37.042Z,1005.23
2018-12-21T07:49:37.032Z,1005.24
2018-12-21T07:50:37.023Z,1005.18
2018-12-21T07:51:37.031Z,1005.13
2018-12-21T07:52:36.998Z,1005.12
2018-12-21T07:53:36.997Z,1005.15
2018-12-21T07:54:36.975Z,1005.08
2018-12-21T07:55:37.015Z,1005.02
2018-12-21T07:56:36.978Z,1005.01
2018-12-21T07:57:36.948Z,1004.95
2018-12-21T07:58:36.930Z,1005.04
2018-12-21T07:59:36.924Z,1005.04
2018-12-21T08:00:36.906Z,1005.08
2018-12-21T08:01:36.935Z,1005.03
2018-12-21T08:02:36.889Z,1005.01
2018-12-21T08:03:36.876Z,1004.99
2018-12-21T08:04:36.865Z,1004.99
2018-12-21T08:05:36.861Z,1004.89
2018-12-21T08:06:36.861Z,1004.98
2018-12-21T08:07:36.834Z,1005.02
2018-12-21T08:08:36.831Z,1005.01
2018-12-21T08:09:36.807Z,1005.00
2018-12-21T08:10:36.797Z,1004.97
2018-12-21T08:11:36.819Z,1004.98
2018-12-21T08:12:36.785Z,1004.97
2018-12-21T08:13:36.769Z,1004.90
2018-12-21T08:14:36.764Z,1004.78
2018-12-21T08:15:36.741Z,1004.84
2018-12-21T08:16:36.769Z,1004.82
2018-12-21T08:17:36.724Z,1004.82
2018-12-21T08:18:36.715Z,1004.81
2018-12-21T08:19:36.708Z,1004.82
2018-12-21T08:20:36.687Z,1004.84
2018-12-21T08:21:36.677Z,1004.85
2018-12-21T08:22:36.689Z,1004.84
2018-12-21T08:23:44.138Z,1004.70
2018-12-21T08:24:37.641Z,1004.71
2018-12-21T08:25:36.637Z,1004.68
2018-12-21T08:26:36.625Z,1004.68
2018-12-21T08:27:36.640Z,1004.69
2018-12-21T08:28:36.599Z,1004.66
2018-12-21T08:29:36.589Z,1004.64
2018-12-21T08:30:36.581Z,1004.61
2018-12-21T08:31:36.569Z,1004.63
2018-12-21T08:32:36.576Z,1004.65
2018-12-21T08:33:36.546Z,1004.57
2018-12-21T08:34:36.537Z,1004.63
2018-12-21T08:35:36.524Z,1004.57
2018-12-21T08:36:36.519Z,1004.55
2018-12-21T08:37:36.515Z,1004.57
2018-12-21T08:38:36.495Z,1004.57
2018-12-21T08:39:36.478Z,1004.55
2018-12-21T08:40:36.471Z,1004.47
2018-12-21T08:41:36.460Z,1004.46
2018-12-21T08:42:36.468Z,1004.39
2018-12-21T08:43:36.442Z,1004.41
2018-12-21T08:44:36.424Z,1004.38
2018-12-21T08:45:36.415Z,1004.36
2018-12-21T08:46:36.399Z,1004.37
2018-12-21T08:47:36.418Z,1004.36
2018-12-21T08:48:36.386Z,1004.36
2018-12-21T08:49:36.368Z,1004.34
2018-12-21T08:50:36.358Z,1004.26
2018-12-21T08:51:36.347Z,1004.33
2018-12-21T08:52:36.353Z,1004.30
2018-12-21T08:53:36.325Z,1004.23
2018-12-21T08:54:36.317Z,1004.30
2018-12-21T08:55:45.272Z,1004.32
2018-12-21T08:56:36.293Z,1004.30
2018-12-21T08:57:36.292Z,1004.34
2018-12-21T08:58:44.305Z,1004.30
2018-12-21T08:59:36.255Z,1004.32
2018-12-21T09:00:36.245Z,1004.28
2018-12-21T09:01:45.351Z,1004.30
2018-12-21T09:02:36.265Z,1004.31
2018-12-21T09:03:36.220Z,1004.29
2018-12-21T09:04:36.208Z,1004.37
2018-12-21T09:05:36.195Z,1004.34
2018-12-21T09:06:36.183Z,1004.36
2018-12-21T09:07:37.296Z,1004.36
2018-12-21T09:08:36.185Z,1004.27
2018-12-21T09:09:36.156Z,1004.23
2018-12-21T09:10:36.140Z,1004.27
2018-12-21T09:11:36.127Z,1004.30
2018-12-21T09:12:36.124Z,1004.27
2018-12-21T09:13:36.127Z,1004.25
2018-12-21T09:14:36.100Z,1004.30
2018-12-21T09:15:36.103Z,1004.19
2018-12-21T09:16:36.066Z,1004.16
2018-12-21T09:17:36.056Z,1004.23
2018-12-21T09:18:36.069Z,1004.20
2018-12-21T09:19:36.043Z,1004.20
2018-12-21T09:20:36.034Z,1004.15
2018-12-21T09:21:36.019Z,1004.09
2018-12-21T09:22:36.003Z,1004.03
2018-12-21T09:23:36.021Z,1004.05
2018-12-21T09:24:35.985Z,1004.09
2018-12-21T09:25:35.986Z,1004.00
2018-12-21T09:26:35.964Z,1004.07
2018-12-21T09:27:35.949Z,1003.99
2018-12-21T09:28:35.962Z,1003.91
2018-12-21T09:29:35.929Z,1003.91
2018-12-21T09:30:35.918Z,1003.92
2018-12-21T09:31:37.625Z,1003.94
2018-12-21T09:32:35.898Z,1003.91
2018-12-21T09:33:35.918Z,1003.93
2018-12-21T09:34:35.874Z,1003.87
2018-12-21T09:35:35.864Z,1003.90
2018-12-21T09:36:35.850Z,1003.78
2018-12-21T09:37:35.864Z,1003.83
2018-12-21T09:38:35.863Z,1003.79
2018-12-21T09:39:35.820Z,1003.74
2018-12-21T09:40:35.811Z,1003.75
2018-12-21T09:41:35.800Z,1003.68
2018-12-21T09:42:35.787Z,1003.66
2018-12-21T09:43:35.792Z,1003.65
2018-12-21T09:44:35.764Z,1003.62
2018-12-21T09:45:35.752Z,1003.62
2018-12-21T09:46:35.744Z,1003.65
2018-12-21T09:47:35.734Z,1003.57
2018-12-21T09:48:35.735Z,1003.53
2018-12-21T09:49:35.707Z,1003.54
2018-12-21T09:50:35.694Z,1003.54
2018-12-21T09:51:35.684Z,1003.44
2018-12-21T09:52:35.676Z,1003.49
2018-12-21T09:53:35.691Z,1003.39
2018-12-21T09:54:35.649Z,1003.42
2018-12-21T09:55:35.637Z,1003.38
2018-12-21T09:56:35.634Z,1003.35
2018-12-21T09:57:35.622Z,1003.36
2018-12-21T09:58:35.612Z,1003.34
2018-12-21T09:59:35.622Z,1003.32
2018-12-21T10:00:35.588Z,1003.32
2018-12-21T10:01:35.577Z,1003.35
2018-12-21T10:02:36.102Z,1003.33
2018-12-21T10:03:35.554Z,1003.25
2018-12-21T10:04:35.557Z,1003.28
2018-12-21T10:05:35.533Z,1003.20
2018-12-21T10:06:35.518Z,1003.25
2018-12-21T10:07:35.511Z,1003.24
2018-12-21T10:08:35.500Z,1003.18
2018-12-21T10:09:35.507Z,1003.17
2018-12-21T10:10:35.479Z,1003.11
2018-12-21T10:11:35.470Z,1003.13
2018-12-21T10:12:35.456Z,1003.06
2018-12-21T10:13:35.447Z,1002.97
2018-12-21T10:14:35.450Z,1002.96
2018-12-21T10:15:35.440Z,1002.89
2018-12-21T10:16:35.416Z,1002.92
2018-12-21T10:17:35.402Z,1002.86
2018-12-21T10:18:35.394Z,1002.86
2018-12-21T10:19:35.395Z,1002.85
2018-12-21T10:20:35.372Z,1002.72
2018-12-21T10:21:35.359Z,1002.68
2018-12-21T10:22:35.350Z,1002.75
2018-12-21T10:23:35.336Z,1002.67
2018-12-21T10:24:35.347Z,1002.66
2018-12-21T10:25:35.317Z,1002.68
2018-12-21T10:26:35.302Z,1002.64
2018-12-21T10:27:35.293Z,1002.58
2018-12-21T10:28:35.281Z,1002.62
2018-12-21T10:29:35.285Z,1002.54
2018-12-21T10:30:35.255Z,1002.55
2018-12-21T10:31:35.251Z,1002.50
2018-12-21T10:32:35.235Z,1002.57
2018-12-21T10:33:35.225Z,1002.58
2018-12-21T10:34:35.248Z,1002.50
2018-12-21T10:35:35.208Z,1002.47
2018-12-21T10:36:35.192Z,1002.42
2018-12-21T10:37:35.184Z,1002.35
2018-12-21T10:38:35.167Z,1002.34
2018-12-21T10:39:35.171Z,1002.36
2018-12-21T10:40:35.155Z,1002.29
2018-12-21T10:41:35.140Z,1002.16
2018-12-21T10:42:35.127Z,1002.20
2018-12-21T10:43:35.115Z,1002.16
2018-12-21T10:44:35.136Z,1002.09
2018-12-21T10:45:41.556Z,1002.09
2018-12-21T10:46:36.089Z,1002.07
2018-12-21T10:47:35.077Z,1002.07
2018-12-21T10:48:37.484Z,1002.07
2018-12-21T10:49:35.048Z,1001.98
2018-12-21T10:50:35.062Z,1002.03
2018-12-21T10:51:35.028Z,1001.97
2018-12-21T10:52:35.015Z,1001.90
2018-12-21T10:53:35.008Z,1001.90
2018-12-21T10:54:34.995Z,1001.85
2018-12-21T10:55:35.005Z,1001.81
2018-12-21T10:56:34.971Z,1001.79
2018-12-21T10:57:34.959Z,1001.79
2018-12-21T10:58:34.957Z,1001.72
2018-12-21T10:59:43.157Z,1001.69
2018-12-21T11:00:35.945Z,1001.68
2018-12-21T11:01:34.919Z,1001.64
2018-12-21T11:02:34.912Z,1001.64
2018-12-21T11:03:34.892Z,1001.60
2018-12-21T11:04:34.885Z,1001.54
2018-12-21T11:05:34.890Z,1001.53
2018-12-21T11:06:34.867Z,1001.55
2018-12-21T11:07:34.853Z,1001.56
2018-12-21T11:08:34.839Z,1001.48
2018-12-21T11:09:34.828Z,1001.50
2018-12-21T11:10:34.840Z,1001.51
2018-12-21T11:11:34.807Z,1001.42
2018-12-21T11:12:34.797Z,1001.46
2018-12-21T11:13:34.789Z,1001.43
2018-12-21T11:14:34.771Z,1001.32
2018-12-21T11:15:34.785Z,1001.28
2018-12-21T11:16:34.751Z,1001.25
2018-12-21T11:17:34.741Z,1001.20
2018-12-21T11:18:34.728Z,1001.23
2018-12-21T11:19:34.719Z,1001.19
2018-12-21T11:20:34.723Z,1001.20
2018-12-21T11:21:34.708Z,1001.16
2018-12-21T11:22:34.689Z,1001.09
2018-12-21T11:23:34.675Z,1001.04
2018-12-21T11:24:35.576Z,1000.99
2018-12-21T11:25:34.678Z,1000.96
2018-12-21T11:26:34.659Z,1000.95
2018-12-21T11:27:34.633Z,1000.97
2018-12-21T11:28:34.625Z,1000.96
2018-12-21T11:29:34.611Z,1000.94
2018-12-21T11:30:34.614Z,1000.90
2018-12-21T11:31:34.595Z,1000.88
2018-12-21T11:32:34.583Z,1000.90
2018-12-21T11:33:34.571Z,1000.80
2018-12-21T11:34:34.552Z,1000.77
2018-12-21T11:35:34.561Z,1000.79
2018-12-21T11:36:34.537Z,1000.73
2018-12-21T11:37:34.525Z,1000.70
2018-12-21T11:38:34.539Z,1000.67
2018-12-21T11:39:34.509Z,1000.61
2018-12-21T11:40:34.535Z,1000.57
2018-12-21T11:41:34.485Z,1000.56
2018-12-21T11:42:34.467Z,1000.57
2018-12-21T11:43:35.344Z,1000.50
2018-12-21T11:44:34.449Z,1000.41
2018-12-21T11:45:34.460Z,1000.38
2018-12-21T11:46:34.429Z,1000.32
2018-12-21T11:47:34.415Z,1000.29
2018-12-21T11:48:43.393Z,1000.27
2018-12-21T11:49:34.397Z,1000.21
2018-12-21T11:50:34.401Z,1000.08
2018-12-21T11:51:42.457Z,1000.12
2018-12-21T11:52:43.473Z,1000.02
2018-12-21T11:53:43.513Z,999.98
2018-12-21T11:54:44.470Z,1000.00
2018-12-21T11:55:42.631Z,999.92
2018-12-21T11:56:34.319Z,999.89
2018-12-21T11:57:43.223Z,999.91
2018-12-21T11:58:34.301Z,999.91
2018-12-21T11:59:34.287Z,999.87
2018-12-21T12:00:34.295Z,999.88
2018-12-21T12:01:34.263Z,999.91
2018-12-21T12:02:34.259Z,999.88
2018-12-21T12:03:34.239Z,999.86
2018-12-21T12:04:34.235Z,999.77
2018-12-21T12:05:34.246Z,999.82
2018-12-21T12:06:34.199Z,999.81